sensor_id;sensor_type;location;lat;lon;timestamp;pressure;altitude;pressure_sealevel;temperature;humidity
55044;BME280;54902;50.420;18.854;2024-03-23T00:54:07;100680.01;;;10.43;67.27
55044;BME280;54902;50.420;18.854;2024-03-23T00:54:38;100668.19;;;10.43;67.33
55044;BME280;54902;50.420;18.854;2024-03-23T00:55:09;100670.93;;;10.43;67.32
55044;BME280;54902;50.420;18.854;2024-03-23T00:55:39;100670.08;;;10.42;67.34
55044;BME280;54902;50.420;18.854;2024-03-23T00:56:10;100673.08;;;10.39;67.15
55044;BME280;54902;50.420;18.854;2024-03-23T00:56:41;100672.80;;;10.42;67.33
55044;BME280;54902;50.420;18.854;2024-03-23T00:57:12;100674.67;;;10.42;67.35
55044;BME280;54902;50.420;18.854;2024-03-23T00:57:43;100671.05;;;10.41;67.34
55044;BME280;54902;50.420;18.854;2024-03-23T00:58:14;100663.75;;;10.42;67.38
55044;BME280;54902;50.420;18.854;2024-03-23T00:58:45;100668.33;;;10.41;67.38
55044;BME280;54902;50.420;18.854;2024-03-23T00:59:16;100663.85;;;10.40;67.37
55044;BME280;54902;50.420;18.854;2024-03-23T00:59:46;100662.15;;;10.39;67.40
55044;BME280;54902;50.420;18.854;2024-03-23T01:00:17;100663.00;;;10.40;67.39
55044;BME280;54902;50.420;18.854;2024-03-23T01:00:49;100664.88;;;10.39;67.41
55044;BME280;54902;50.420;18.854;2024-03-23T01:01:19;100664.88;;;10.39;67.41
55044;BME280;54902;50.420;18.854;2024-03-23T01:01:51;100667.61;;;10.39;67.43
55044;BME280;54902;50.420;18.854;2024-03-23T01:02:22;100650.88;;;10.33;67.42
55044;BME280;54902;50.420;18.854;2024-03-23T01:02:53;100664.13;;;10.37;67.41
55044;BME280;54902;50.420;18.854;2024-03-23T01:03:23;100661.40;;;10.37;67.41
55044;BME280;54902;50.420;18.854;2024-03-23T01:03:54;100668.73;;;10.37;67.41
55044;BME280;54902;50.420;18.854;2024-03-23T01:04:25;100656.07;;;10.36;67.42
55044;BME280;54902;50.420;18.854;2024-03-23T01:04:56;100656.07;;;10.36;67.41
55044;BME280;54902;50.420;18.854;2024-03-23T01:05:27;100666.14;;;10.35;67.45
55044;BME280;54902;50.420;18.854;2024-03-23T01:06:01;100661.67;;;10.34;67.44
55044;BME280;54902;50.420;18.854;2024-03-23T01:06:32;100658.94;;;10.34;67.45
55044;BME280;54902;50.420;18.854;2024-03-23T01:07:03;100652.62;;;10.34;67.43
55044;BME280;54902;50.420;18.854;2024-03-23T01:07:34;100658.94;;;10.34;67.45
55044;BME280;54902;50.420;18.854;2024-03-23T01:08:05;100663.54;;;10.34;67.43
55044;BME280;54902;50.420;18.854;2024-03-23T01:08:36;100665.38;;;10.33;67.44
55044;BME280;54902;50.420;18.854;2024-03-23T01:09:07;100652.72;;;10.32;67.46
55044;BME280;54902;50.420;18.854;2024-03-23T01:09:41;100663.63;;;10.32;67.44
55044;BME280;54902;50.420;18.854;2024-03-23T01:10:12;100657.33;;;10.32;67.47
55044;BME280;54902;50.420;18.854;2024-03-23T01:10:42;100651.02;;;10.31;67.48
55044;BME280;54902;50.420;18.854;2024-03-23T01:11:13;100653.75;;;10.31;67.47
55044;BME280;54902;50.420;18.854;2024-03-23T01:11:44;100654.73;;;10.30;67.47
55044;BME280;54902;50.420;18.854;2024-03-23T01:12:15;100655.59;;;10.31;67.47
55044;BME280;54902;50.420;18.854;2024-03-23T01:12:46;100652.00;;;10.30;67.48
55044;BME280;54902;50.420;18.854;2024-03-23T01:13:16;100649.27;;;10.30;67.50
55044;BME280;54902;50.420;18.854;2024-03-23T01:13:53;100657.60;;;10.29;67.49
55044;BME280;54902;50.420;18.854;2024-03-23T01:14:26;100648.52;;;10.28;67.52
55044;BME280;54902;50.420;18.854;2024-03-23T01:14:57;100651.24;;;10.28;67.55
55044;BME280;54902;50.420;18.854;2024-03-23T01:15:28;100628.21;;;10.21;67.56
55044;BME280;54902;50.420;18.854;2024-03-23T01:15:59;100644.09;;;10.27;67.58
55044;BME280;54902;50.420;18.854;2024-03-23T01:16:30;100644.09;;;10.27;67.58
55044;BME280;54902;50.420;18.854;2024-03-23T01:17:00;100644.31;;;10.24;67.59
55044;BME280;54902;50.420;18.854;2024-03-23T01:17:32;100647.80;;;10.26;67.60
55044;BME280;54902;50.420;18.854;2024-03-23T01:18:03;100654.12;;;10.27;67.60
55044;BME280;54902;50.420;18.854;2024-03-23T01:18:33;100641.45;;;10.26;67.63
55044;BME280;54902;50.420;18.854;2024-03-23T01:19:04;100645.20;;;10.25;67.63
55044;BME280;54902;50.420;18.854;2024-03-23T01:19:36;100640.73;;;10.24;67.63
55044;BME280;54902;50.420;18.854;2024-03-23T01:20:11;100650.66;;;10.25;67.66
55044;BME280;54902;50.420;18.854;2024-03-23T01:20:42;100647.93;;;10.25;67.66
55044;BME280;54902;50.420;18.854;2024-03-23T01:21:13;100647.93;;;10.25;67.67
55044;BME280;54902;50.420;18.854;2024-03-23T01:21:44;100642.47;;;10.25;67.65
55044;BME280;54902;50.420;18.854;2024-03-23T01:22:15;100638.00;;;10.24;67.65
55044;BME280;54902;50.420;18.854;2024-03-23T01:22:45;100639.88;;;10.23;67.63
55044;BME280;54902;50.420;18.854;2024-03-23T01:23:16;100636.12;;;10.24;67.62
55044;BME280;54902;50.420;18.854;2024-03-23T01:23:47;100629.80;;;10.24;67.61
55044;BME280;54902;50.420;18.854;2024-03-23T01:24:18;100635.27;;;10.24;67.62
55044;BME280;54902;50.420;18.854;2024-03-23T01:24:49;100633.38;;;10.24;67.61
55044;BME280;54902;50.420;18.854;2024-03-23T01:25:19;100636.12;;;10.24;67.61
55044;BME280;54902;50.420;18.854;2024-03-23T01:25:54;100638.98;;;10.23;67.63
55044;BME280;54902;50.420;18.854;2024-03-23T01:26:25;100634.41;;;10.23;67.64
55044;BME280;54902;50.420;18.854;2024-03-23T01:26:56;100634.41;;;10.23;67.62
55044;BME280;54902;50.420;18.854;2024-03-23T01:27:26;100633.38;;;10.24;67.61
55044;BME280;54902;50.420;18.854;2024-03-23T01:27:57;100629.06;;;10.22;67.61
55044;BME280;54902;50.420;18.854;2024-03-23T01:28:28;100633.53;;;10.23;67.63
55044;BME280;54902;50.420;18.854;2024-03-23T01:28:59;100632.68;;;10.22;67.63
55044;BME280;54902;50.420;18.854;2024-03-23T01:29:30;100621.75;;;10.22;67.66
55044;BME280;54902;50.420;18.854;2024-03-23T01:30:01;100628.95;;;10.23;67.63
55044;BME280;54902;50.420;18.854;2024-03-23T01:30:35;100628.95;;;10.23;67.64
55044;BME280;54902;50.420;18.854;2024-03-23T01:31:06;100628.95;;;10.23;67.65
55044;BME280;54902;50.420;18.854;2024-03-23T01:31:37;100631.68;;;10.23;67.68
55044;BME280;54902;50.420;18.854;2024-03-23T01:32:07;100633.53;;;10.23;67.65
55044;BME280;54902;50.420;18.854;2024-03-23T01:32:38;100627.22;;;10.22;67.66
55044;BME280;54902;50.420;18.854;2024-03-23T01:33:09;100621.63;;;10.24;67.67
55044;BME280;54902;50.420;18.854;2024-03-23T01:33:40;100627.08;;;10.24;67.69
55044;BME280;54902;50.420;18.854;2024-03-23T01:34:11;100629.80;;;10.24;67.67
55044;BME280;54902;50.420;18.854;2024-03-23T01:34:43;100629.80;;;10.24;67.71
55044;BME280;54902;50.420;18.854;2024-03-23T01:35:13;100626.09;;;10.25;67.70
55044;BME280;54902;50.420;18.854;2024-03-23T01:35:44;100626.09;;;10.25;67.67
55044;BME280;54902;50.420;18.854;2024-03-23T01:36:15;100621.63;;;10.24;67.65
55044;BME280;54902;50.420;18.854;2024-03-23T01:36:46;100626.09;;;10.25;67.66
55044;BME280;54902;50.420;18.854;2024-03-23T01:37:17;100619.74;;;10.24;67.66
55044;BME280;54902;50.420;18.854;2024-03-23T01:37:48;100621.48;;;10.25;67.68
55044;BME280;54902;50.420;18.854;2024-03-23T01:38:19;100614.28;;;10.24;67.70
55044;BME280;54902;50.420;18.854;2024-03-23T01:38:50;100608.69;;;10.26;67.71
55044;BME280;54902;50.420;18.854;2024-03-23T01:39:22;100603.36;;;10.24;67.72
55044;BME280;54902;50.420;18.854;2024-03-23T01:39:53;100610.56;;;10.25;67.73
55044;BME280;54902;50.420;18.854;2024-03-23T01:40:24;100602.37;;;10.25;67.75
55044;BME280;54902;50.420;18.854;2024-03-23T01:40:58;100605.95;;;10.26;67.76
55044;BME280;54902;50.420;18.854;2024-03-23T01:41:28;100605.10;;;10.25;67.77
55044;BME280;54902;50.420;18.854;2024-03-23T01:41:59;100596.91;;;10.25;67.78
55044;BME280;54902;50.420;18.854;2024-03-23T01:42:30;100598.80;;;10.25;67.77
55044;BME280;54902;50.420;18.854;2024-03-23T01:43:07;100604.25;;;10.25;67.77
55044;BME280;54902;50.420;18.854;2024-03-23T01:43:38;100599.65;;;10.25;67.79
55044;BME280;54902;50.420;18.854;2024-03-23T01:44:09;100594.18;;;10.25;67.80
55044;BME280;54902;50.420;18.854;2024-03-23T01:44:41;100596.91;;;10.25;67.79
55044;BME280;54902;50.420;18.854;2024-03-23T01:45:12;100599.65;;;10.25;67.79
55044;BME280;54902;50.420;18.854;2024-03-23T01:45:43;100599.65;;;10.25;67.79
55044;BME280;54902;50.420;18.854;2024-03-23T01:46:14;100598.80;;;10.25;67.79
55044;BME280;54902;50.420;18.854;2024-03-23T01:46:44;100589.72;;;10.24;67.82
55044;BME280;54902;50.420;18.854;2024-03-23T01:47:15;100592.44;;;10.24;67.78
55044;BME280;54902;50.420;18.854;2024-03-23T01:47:46;100596.91;;;10.25;67.76
55044;BME280;54902;50.420;18.854;2024-03-23T01:48:17;100592.44;;;10.24;67.76
55044;BME280;54902;50.420;18.854;2024-03-23T01:48:48;100588.85;;;10.24;67.76
55044;BME280;54902;50.420;18.854;2024-03-23T01:49:20;100592.44;;;10.24;67.76
55044;BME280;54902;50.420;18.854;2024-03-23T01:49:51;100590.73;;;10.23;67.74
55044;BME280;54902;50.420;18.854;2024-03-23T01:50:23;100602.51;;;10.24;67.72
55044;BME280;54902;50.420;18.854;2024-03-23T01:50:54;100596.91;;;10.25;67.71
55044;BME280;54902;50.420;18.854;2024-03-23T01:51:26;100594.18;;;10.25;67.71
55044;BME280;54902;50.420;18.854;2024-03-23T01:51:57;100591.59;;;10.24;67.77
55044;BME280;54902;50.420;18.854;2024-03-23T01:52:29;100598.80;;;10.25;67.73
55044;BME280;54902;50.420;18.854;2024-03-23T01:53:04;100592.44;;;10.24;67.74
55044;BME280;54902;50.420;18.854;2024-03-23T01:53:37;100591.59;;;10.24;67.72
55044;BME280;54902;50.420;18.854;2024-03-23T01:54:08;100592.44;;;10.24;67.79
55044;BME280;54902;50.420;18.854;2024-03-23T01:54:40;100588.72;;;10.25;67.77
55044;BME280;54902;50.420;18.854;2024-03-23T01:55:11;100597.90;;;10.24;67.76
55044;BME280;54902;50.420;18.854;2024-03-23T01:55:43;100589.72;;;10.24;67.75
55044;BME280;54902;50.420;18.854;2024-03-23T01:56:14;100596.20;;;10.23;67.74
55044;BME280;54902;50.420;18.854;2024-03-23T01:56:45;100601.66;;;10.23;67.74
55044;BME280;54902;50.420;18.854;2024-03-23T01:57:16;100592.44;;;10.24;67.76
55044;BME280;54902;50.420;18.854;2024-03-23T01:57:47;100585.14;;;10.25;67.77
55044;BME280;54902;50.420;18.854;2024-03-23T01:58:18;100592.44;;;10.24;67.74
55044;BME280;54902;50.420;18.854;2024-03-23T01:58:49;100595.16;;;10.24;67.72
55044;BME280;54902;50.420;18.854;2024-03-23T01:59:20;100592.44;;;10.24;67.72
55044;BME280;54902;50.420;18.854;2024-03-23T01:59:51;100600.77;;;10.23;67.71
55044;BME280;54902;50.420;18.854;2024-03-23T02:00:24;100602.51;;;10.24;67.71
55044;BME280;54902;50.420;18.854;2024-03-23T02:00:58;100604.39;;;10.23;67.72
55044;BME280;54902;50.420;18.854;2024-03-23T02:01:28;100598.92;;;10.23;67.76
55044;BME280;54902;50.420;18.854;2024-03-23T02:02:00;100607.13;;;10.23;67.77
55044;BME280;54902;50.420;18.854;2024-03-23T02:02:31;100590.73;;;10.23;67.77
55044;BME280;54902;50.420;18.854;2024-03-23T02:03:02;100595.31;;;10.23;67.78
55044;BME280;54902;50.420;18.854;2024-03-23T02:03:38;100596.20;;;10.23;67.82
55044;BME280;54902;50.420;18.854;2024-03-23T02:04:09;100594.46;;;10.22;67.84
55044;BME280;54902;50.420;18.854;2024-03-23T02:04:40;100599.91;;;10.22;67.90
55044;BME280;54902;50.420;18.854;2024-03-23T02:05:14;100602.64;;;10.22;67.92
55044;BME280;54902;50.420;18.854;2024-03-23T02:05:45;100602.64;;;10.22;67.94
55044;BME280;54902;50.420;18.854;2024-03-23T02:06:16;100603.64;;;10.21;67.87
55044;BME280;54902;50.420;18.854;2024-03-23T02:06:47;100598.17;;;10.21;67.82
55044;BME280;54902;50.420;18.854;2024-03-23T02:07:18;100604.49;;;10.22;67.81
55044;BME280;54902;50.420;18.854;2024-03-23T02:07:50;100607.22;;;10.22;67.81
55044;BME280;54902;50.420;18.854;2024-03-23T02:08:22;100601.89;;;10.20;67.82
55044;BME280;54902;50.420;18.854;2024-03-23T02:08:55;100602.78;;;10.21;67.83
55044;BME280;54902;50.420;18.854;2024-03-23T02:09:26;100599.17;;;10.20;67.81
55044;BME280;54902;50.420;18.854;2024-03-23T02:09:57;100598.31;;;10.20;67.84
55044;BME280;54902;50.420;18.854;2024-03-23T02:10:28;100599.17;;;10.20;67.85
55044;BME280;54902;50.420;18.854;2024-03-23T02:10:58;100595.58;;;10.20;67.88
55044;BME280;54902;50.420;18.854;2024-03-23T02:11:29;100597.45;;;10.19;67.91
55044;BME280;54902;50.420;18.854;2024-03-23T02:12:02;100591.11;;;10.19;67.94
55044;BME280;54902;50.420;18.854;2024-03-23T02:12:34;100600.18;;;10.19;67.98
55044;BME280;54902;50.420;18.854;2024-03-23T02:13:05;100592.84;;;10.20;68.00
55044;BME280;54902;50.420;18.854;2024-03-23T02:13:35;100590.25;;;10.18;68.03
55044;BME280;54902;50.420;18.854;2024-03-23T02:14:06;100590.25;;;10.18;68.04
55044;BME280;54902;50.420;18.854;2024-03-23T02:14:38;100588.52;;;10.17;68.02
55044;BME280;54902;50.420;18.854;2024-03-23T02:15:09;100592.10;;;10.18;68.05
55044;BME280;54902;50.420;18.854;2024-03-23T02:15:40;100592.98;;;10.18;68.07
55044;BME280;54902;50.420;18.854;2024-03-23T02:16:10;100590.39;;;10.17;68.10
55044;BME280;54902;50.420;18.854;2024-03-23T02:16:43;100591.25;;;10.17;68.14
55044;BME280;54902;50.420;18.854;2024-03-23T02:17:13;100594.96;;;10.16;68.21
55044;BME280;54902;50.420;18.854;2024-03-23T02:17:44;100594.96;;;10.16;68.23
55044;BME280;54902;50.420;18.854;2024-03-23T02:18:15;100591.38;;;10.16;68.24
55044;BME280;54902;50.420;18.854;2024-03-23T02:18:46;100595.84;;;10.17;68.25
55044;BME280;54902;50.420;18.854;2024-03-23T02:19:16;100590.52;;;10.15;68.26
55044;BME280;54902;50.420;18.854;2024-03-23T02:19:47;100603.28;;;10.15;68.28
55044;BME280;54902;50.420;18.854;2024-03-23T02:20:19;100597.83;;;10.15;68.29
55044;BME280;54902;50.420;18.854;2024-03-23T02:20:49;100592.37;;;10.15;68.31
55044;BME280;54902;50.420;18.854;2024-03-23T02:21:20;100599.70;;;10.14;68.32
55044;BME280;54902;50.420;18.854;2024-03-23T02:21:51;100602.44;;;10.14;68.33
55044;BME280;54902;50.420;18.854;2024-03-23T02:22:22;100600.69;;;10.13;68.33
55044;BME280;54902;50.420;18.854;2024-03-23T02:22:53;100589.77;;;10.13;68.34
55044;BME280;54902;50.420;18.854;2024-03-23T02:23:24;100604.41;;;10.12;68.35
55044;BME280;54902;50.420;18.854;2024-03-23T02:23:55;100598.95;;;10.12;68.36
55044;BME280;54902;50.420;18.854;2024-03-23T02:24:26;100598.95;;;10.12;68.35
55044;BME280;54902;50.420;18.854;2024-03-23T02:24:56;100589.91;;;10.12;68.35
55044;BME280;54902;50.420;18.854;2024-03-23T02:25:27;100597.22;;;10.11;68.37
55044;BME280;54902;50.420;18.854;2024-03-23T02:25:58;100585.44;;;10.11;68.38
55044;BME280;54902;50.420;18.854;2024-03-23T02:26:29;100582.84;;;10.09;68.38
55044;BME280;54902;50.420;18.854;2024-03-23T02:27:00;100590.18;;;10.09;68.37
55044;BME280;54902;50.420;18.854;2024-03-23T02:27:31;100586.42;;;10.10;68.43
55044;BME280;54902;50.420;18.854;2024-03-23T02:28:02;100582.84;;;10.09;68.37
55044;BME280;54902;50.420;18.854;2024-03-23T02:28:33;100581.09;;;10.08;68.39
55044;BME280;54902;50.420;18.854;2024-03-23T02:29:03;100581.09;;;10.08;68.40
55044;BME280;54902;50.420;18.854;2024-03-23T02:29:34;100580.25;;;10.08;68.42
55044;BME280;54902;50.420;18.854;2024-03-23T02:30:06;100592.02;;;10.08;68.42
55044;BME280;54902;50.420;18.854;2024-03-23T02:30:37;100572.20;;;10.06;68.42
55044;BME280;54902;50.420;18.854;2024-03-23T02:31:08;100576.63;;;10.07;68.42
55044;BME280;54902;50.420;18.854;2024-03-23T02:31:39;100573.19;;;10.05;68.43
55044;BME280;54902;50.420;18.854;2024-03-23T02:32:10;100567.73;;;10.05;68.46
55044;BME280;54902;50.420;18.854;2024-03-23T02:32:41;100570.45;;;10.05;68.48
55044;BME280;54902;50.420;18.854;2024-03-23T02:33:12;100572.20;;;10.06;68.49
55044;BME280;54902;50.420;18.854;2024-03-23T02:33:43;100570.45;;;10.05;68.50
55044;BME280;54902;50.420;18.854;2024-03-23T02:34:13;100575.91;;;10.05;68.51
55044;BME280;54902;50.420;18.854;2024-03-23T02:34:44;100564.14;;;10.05;68.53
55044;BME280;54902;50.420;18.854;2024-03-23T02:35:15;100575.06;;;10.05;68.55
55044;BME280;54902;50.420;18.854;2024-03-23T02:35:47;100567.86;;;10.04;68.56
55044;BME280;54902;50.420;18.854;2024-03-23T02:36:17;100574.18;;;10.04;68.55
55044;BME280;54902;50.420;18.854;2024-03-23T02:36:49;100563.52;;;10.01;68.62
55044;BME280;54902;50.420;18.854;2024-03-23T02:37:19;100571.58;;;10.03;68.58
55044;BME280;54902;50.420;18.854;2024-03-23T02:37:50;100571.58;;;10.03;68.60
55044;BME280;54902;50.420;18.854;2024-03-23T02:38:21;100563.39;;;10.03;68.61
55044;BME280;54902;50.420;18.854;2024-03-23T02:38:52;100570.72;;;10.02;68.61
55044;BME280;54902;50.420;18.854;2024-03-23T02:39:23;100577.03;;;10.03;68.61
55044;BME280;54902;50.420;18.854;2024-03-23T02:39:54;100564.38;;;10.02;68.63
55044;BME280;54902;50.420;18.854;2024-03-23T02:40:25;100566.13;;;10.03;68.63
55044;BME280;54902;50.420;18.854;2024-03-23T02:41:03;100564.38;;;10.02;68.65
55044;BME280;54902;50.420;18.854;2024-03-23T02:41:35;100577.16;;;10.01;68.62
55044;BME280;54902;50.420;18.854;2024-03-23T02:42:06;100564.38;;;10.02;68.62
55044;BME280;54902;50.420;18.854;2024-03-23T02:42:37;100568.98;;;10.01;68.64
55044;BME280;54902;50.420;18.854;2024-03-23T02:43:07;100560.05;;;9.99;68.68
55044;BME280;54902;50.420;18.854;2024-03-23T02:43:38;100565.37;;;10.01;68.70
55044;BME280;54902;50.420;18.854;2024-03-23T02:44:09;100555.48;;;10.00;68.69
55044;BME280;54902;50.420;18.854;2024-03-23T02:44:42;100555.48;;;10.00;68.70
55044;BME280;54902;50.420;18.854;2024-03-23T02:45:13;100562.77;;;9.99;68.67
55044;BME280;54902;50.420;18.854;2024-03-23T02:45:44;100560.05;;;9.99;68.67
55044;BME280;54902;50.420;18.854;2024-03-23T02:46:14;100560.05;;;9.99;68.68
55044;BME280;54902;50.420;18.854;2024-03-23T02:46:45;100560.05;;;9.99;68.70
55044;BME280;54902;50.420;18.854;2024-03-23T02:47:16;100557.32;;;9.99;68.70
55044;BME280;54902;50.420;18.854;2024-03-23T02:47:47;100556.46;;;9.99;68.69
55044;BME280;54902;50.420;18.854;2024-03-23T02:48:22;100552.88;;;9.98;68.69
55044;BME280;54902;50.420;18.854;2024-03-23T02:48:54;100552.88;;;9.98;68.67
55044;BME280;54902;50.420;18.854;2024-03-23T02:49:27;100560.05;;;9.99;68.69
55044;BME280;54902;50.420;18.854;2024-03-23T02:49:58;100558.33;;;9.98;68.70
55044;BME280;54902;50.420;18.854;2024-03-23T02:50:29;100553.73;;;9.99;68.71
55044;BME280;54902;50.420;18.854;2024-03-23T02:51:00;100552.88;;;9.98;68.72
55044;BME280;54902;50.420;18.854;2024-03-23T02:51:31;100547.42;;;9.98;68.72
55044;BME280;54902;50.420;18.854;2024-03-23T02:52:02;100553.73;;;9.99;68.73
55044;BME280;54902;50.420;18.854;2024-03-23T02:52:33;100542.81;;;9.99;68.74
55044;BME280;54902;50.420;18.854;2024-03-23T02:53:04;100544.69;;;9.98;68.74
55044;BME280;54902;50.420;18.854;2024-03-23T02:53:34;100539.23;;;9.98;68.76
55044;BME280;54902;50.420;18.854;2024-03-23T02:54:05;100550.16;;;9.98;68.76
55044;BME280;54902;50.420;18.854;2024-03-23T02:54:36;100541.08;;;9.98;68.77
55044;BME280;54902;50.420;18.854;2024-03-23T02:55:07;100543.80;;;9.98;68.78
55044;BME280;54902;50.420;18.854;2024-03-23T02:55:38;100545.69;;;9.97;68.78
55044;BME280;54902;50.420;18.854;2024-03-23T02:56:09;100542.95;;;9.97;68.81
55044;BME280;54902;50.420;18.854;2024-03-23T02:56:47;100542.07;;;9.97;68.82
55044;BME280;54902;50.420;18.854;2024-03-23T02:57:17;100540.22;;;9.97;68.82
55044;BME280;54902;50.420;18.854;2024-03-23T02:57:48;100544.80;;;9.97;68.76
55044;BME280;54902;50.420;18.854;2024-03-23T02:58:19;100544.80;;;9.97;68.72
55044;BME280;54902;50.420;18.854;2024-03-23T02:58:50;100539.34;;;9.97;68.75
55044;BME280;54902;50.420;18.854;2024-03-23T02:59:21;100538.86;;;9.92;68.73
55044;BME280;54902;50.420;18.854;2024-03-23T02:59:52;100546.66;;;9.96;68.77
55044;BME280;54902;50.420;18.854;2024-03-23T03:00:23;100538.49;;;9.96;68.85
55044;BME280;54902;50.420;18.854;2024-03-23T03:00:53;100538.49;;;9.96;68.89
55044;BME280;54902;50.420;18.854;2024-03-23T03:01:24;100530.29;;;9.96;68.86
55044;BME280;54902;50.420;18.854;2024-03-23T03:01:56;100533.02;;;9.96;68.89
55044;BME280;54902;50.420;18.854;2024-03-23T03:02:27;100542.20;;;9.95;68.88
55044;BME280;54902;50.420;18.854;2024-03-23T03:02:58;100541.31;;;9.95;68.88
55044;BME280;54902;50.420;18.854;2024-03-23T03:03:28;100539.47;;;9.95;68.89
55044;BME280;54902;50.420;18.854;2024-03-23T03:04:00;100544.04;;;9.95;68.90
55044;BME280;54902;50.420;18.854;2024-03-23T03:04:31;100542.20;;;9.95;68.90
55044;BME280;54902;50.420;18.854;2024-03-23T03:05:02;100540.46;;;9.94;68.91
55044;BME280;54902;50.420;18.854;2024-03-23T03:05:33;100536.84;;;9.94;68.92
55044;BME280;54902;50.420;18.854;2024-03-23T03:06:04;100535.98;;;9.93;68.92
55044;BME280;54902;50.420;18.854;2024-03-23T03:06:34;100552.36;;;9.93;68.95
55044;BME280;54902;50.420;18.854;2024-03-23T03:07:05;100540.46;;;9.94;68.96
55044;BME280;54902;50.420;18.854;2024-03-23T03:07:36;100532.38;;;9.93;68.97
55044;BME280;54902;50.420;18.854;2024-03-23T03:08:11;100538.72;;;9.93;68.96
55044;BME280;54902;50.420;18.854;2024-03-23T03:08:42;100535.10;;;9.93;68.97
55044;BME280;54902;50.420;18.854;2024-03-23T03:09:12;100534.25;;;9.92;68.97
55044;BME280;54902;50.420;18.854;2024-03-23T03:09:43;100540.70;;;9.91;68.98
55044;BME280;54902;50.420;18.854;2024-03-23T03:10:14;100548.75;;;9.93;68.96
55044;BME280;54902;50.420;18.854;2024-03-23T03:10:45;100535.23;;;9.91;68.98
55044;BME280;54902;50.420;18.854;2024-03-23T03:11:16;100546.16;;;9.91;69.01
55044;BME280;54902;50.420;18.854;2024-03-23T03:11:46;100546.16;;;9.91;69.01
55044;BME280;54902;50.420;18.854;2024-03-23T03:12:17;100540.70;;;9.91;68.99
55044;BME280;54902;50.420;18.854;2024-03-23T03:12:48;100540.70;;;9.91;69.00
55044;BME280;54902;50.420;18.854;2024-03-23T03:13:19;100538.99;;;9.90;69.02
55044;BME280;54902;50.420;18.854;2024-03-23T03:13:50;100533.54;;;9.90;69.00
55044;BME280;54902;50.420;18.854;2024-03-23T03:14:21;100534.52;;;9.89;69.00
55044;BME280;54902;50.420;18.854;2024-03-23T03:14:51;100538.99;;;9.90;69.00
55044;BME280;54902;50.420;18.854;2024-03-23T03:15:22;100539.98;;;9.89;69.01
55044;BME280;54902;50.420;18.854;2024-03-23T03:15:53;100537.25;;;9.89;69.05
55044;BME280;54902;50.420;18.854;2024-03-23T03:16:24;100543.55;;;9.90;69.05
55044;BME280;54902;50.420;18.854;2024-03-23T03:16:55;100541.82;;;9.89;69.05
55044;BME280;54902;50.420;18.854;2024-03-23T03:17:26;100540.97;;;9.88;69.06
55044;BME280;54902;50.420;18.854;2024-03-23T03:17:56;100535.51;;;9.88;69.04
55044;BME280;54902;50.420;18.854;2024-03-23T03:18:27;100536.51;;;9.87;69.05
55044;BME280;54902;50.420;18.854;2024-03-23T03:18:58;100540.97;;;9.88;69.04
55044;BME280;54902;50.420;18.854;2024-03-23T03:19:30;100537.39;;;9.88;69.03
55044;BME280;54902;50.420;18.854;2024-03-23T03:20:01;100540.12;;;9.88;69.05
55044;BME280;54902;50.420;18.854;2024-03-23T03:20:31;100533.77;;;9.87;69.03
55044;BME280;54902;50.420;18.854;2024-03-23T03:21:03;100536.51;;;9.87;69.07
55044;BME280;54902;50.420;18.854;2024-03-23T03:21:39;100529.30;;;9.86;69.03
55044;BME280;54902;50.420;18.854;2024-03-23T03:22:09;100527.45;;;9.87;69.04
55044;BME280;54902;50.420;18.854;2024-03-23T03:22:40;100525.72;;;9.86;69.05
55044;BME280;54902;50.420;18.854;2024-03-23T03:23:11;100528.30;;;9.87;69.05
55044;BME280;54902;50.420;18.854;2024-03-23T03:23:42;100520.26;;;9.86;69.06
55044;BME280;54902;50.420;18.854;2024-03-23T03:24:14;100533.91;;;9.86;69.13
55044;BME280;54902;50.420;18.854;2024-03-23T03:24:45;100530.33;;;9.85;69.15
55044;BME280;54902;50.420;18.854;2024-03-23T03:25:16;100523.98;;;9.85;69.13
55044;BME280;54902;50.420;18.854;2024-03-23T03:25:47;100521.25;;;9.85;69.15
55044;BME280;54902;50.420;18.854;2024-03-23T03:26:18;100530.33;;;9.85;69.16
55044;BME280;54902;50.420;18.854;2024-03-23T03:26:49;100519.41;;;9.85;69.20
55044;BME280;54902;50.420;18.854;2024-03-23T03:27:20;100526.71;;;9.85;69.22
55044;BME280;54902;50.420;18.854;2024-03-23T03:27:53;100528.59;;;9.84;69.27
55044;BME280;54902;50.420;18.854;2024-03-23T03:28:24;100525.85;;;9.84;69.26
55044;BME280;54902;50.420;18.854;2024-03-23T03:29:00;100509.63;;;9.83;69.25
55044;BME280;54902;50.420;18.854;2024-03-23T03:29:31;100517.67;;;9.84;69.30
55044;BME280;54902;50.420;18.854;2024-03-23T03:30:06;100510.48;;;9.83;69.29
55044;BME280;54902;50.420;18.854;2024-03-23T03:30:39;100509.63;;;9.83;69.25
55044;BME280;54902;50.420;18.854;2024-03-23T03:31:09;100516.82;;;9.84;69.25
55044;BME280;54902;50.420;18.854;2024-03-23T03:31:40;100516.92;;;9.83;69.16
55044;BME280;54902;50.420;18.854;2024-03-23T03:32:11;100500.69;;;9.81;69.10
55044;BME280;54902;50.420;18.854;2024-03-23T03:32:42;100504.16;;;9.83;69.17
55044;BME280;54902;50.420;18.854;2024-03-23T03:33:13;100510.48;;;9.83;69.17
55044;BME280;54902;50.420;18.854;2024-03-23T03:33:45;100508.74;;;9.83;69.17
55044;BME280;54902;50.420;18.854;2024-03-23T03:34:16;100506.01;;;9.83;69.17
55044;BME280;54902;50.420;18.854;2024-03-23T03:34:47;100497.81;;;9.83;69.16
55044;BME280;54902;50.420;18.854;2024-03-23T03:35:20;100496.11;;;9.82;69.14
55044;BME280;54902;50.420;18.854;2024-03-23T03:35:51;100502.28;;;9.83;69.15